Terminal Aerodrome Forecast
Issued by NWS Memphis, TN

Home | Current Version | Previous Version | Text Only | Print | Product List | Glossary On
Versions: 1 2 3 4 5 6 7 8 9 10 11 12 13 14 15
000
FTUS44 KMEG 161700
TAFMKL
TAF
KMKL 161726Z 1618/1718 36006KT P6SM OVC007
     FM162100 01007KT P6SM OVC035
     FM170100 00000KT P6SM SCT025 BKN100
      TEMPO 1708/1712 2SM BR
     FM171400 03004KT P6SM SKC=

USA.gov is the U.S. government's official web portal to all federal, state and local government web resources and services.